Weather observations for the past three days for
Dickson Municipal Airport
Metric (Imperial)
Date Time (cdt) Wind (kph) Vis. (km) Weather Sky Cond. Temperature (ºC) Relative Humidity Wind Chill (°C) Heat Index (°C) Pressure Precipitation (cm)
Air Dwpt 6 hour altimeter (cm) sea level (mb) 1 hr 3 hr 6 hr
Max. Min.
04 07:35 Calm 16.09 Fair CLR 26 23 84% 28 76.28 0.0
04 07:15 Calm 16.09 Fair CLR 25 22 83% 26 76.25 0.0
04 06:50 Calm 16.09 Fair CLR 24 22 89% 24 76.23 0.0
04 06:35 Calm 16.09 Fair CLR 24 22 89% 24 76.23 0.0
04 06:15 Calm 16.09 Fair CLR 24 22 89% 24 76.2 0.0
04 05:55 Calm 16.09 Fair CLR 24 22 89% 24 76.2 0.0
04 05:35 Calm 16.09 A Few Clouds FEW050 FEW055 24 22 89% 24 76.17 0.0
04 05:15 Calm 16.09 Partly Cloudy SCT055 SCT070 24 22 89% 24 76.2 0.0
04 04:50 Calm 16.09 Mostly Cloudy SCT050 BKN055 24 21 83% 24 76.17 0.0
04 04:35 Calm 16.09 A Few Clouds FEW055 24 21 83% 24 76.2 0.0
04 04:15 Calm 16.09 Fair CLR 24 22 89% 24 76.17 0.0
04 03:55 Calm 16.09 A Few Clouds FEW050 24 22 89% 24 76.17 0.0
04 03:35 Calm 16.09 Partly Cloudy FEW050 SCT055 24 22 89% 24 76.15 0.0
04 03:15 Calm 16.09 Partly Cloudy SCT050 25 22 83% 26 76.15 0.0
04 02:55 Calm 16.09 A Few Clouds FEW055 25 22 83% 26 76.15 0.0
04 02:35 Calm 16.09 A Few Clouds FEW055 FEW065 25 22 83% 26 76.15 0.0
04 02:15 Calm 16.09 Partly Cloudy SCT060 25 22 83% 26 76.17 0.0
04 01:55 Calm 16.09 Partly Cloudy FEW047 SCT060 25 21 79% 26 76.17 0.0
04 01:35 Calm 16.09 A Few Clouds FEW055 FEW065 25 21 79% 26 76.17 0.0
04 01:15 Calm 16.09 Fair CLR 25 21 79% 26 76.17 0.0
04 00:55 Calm 16.09 A Few Clouds FEW049 25 22 83% 26 76.17 0.0
04 00:35 Calm 16.09 A Few Clouds FEW049 25 22 83% 26 76.17 0.0
04 00:15 Calm 16.09 Fair CLR 25 22 83% 26 76.17 0.0
03 23:55 Calm 16.09 Fair CLR 26 22 79% 28 76.2 0.0
03 23:35 Calm 16.09 A Few Clouds FEW050 25 22 83% 26 76.2 0.0
03 23:15 Calm 16.09 Fair CLR 25 22 83% 26 76.2 0.0
03 22:55 Calm 16.09 Fair CLR 25 22 83% 26 76.2 0.0
03 22:35 Calm 16.09 A Few Clouds FEW060 26 22 79% 28 76.23 0.0
03 22:15 Calm 16.09 Fair CLR 26 22 79% 28 76.23 0.0
03 21:55 Calm 16.09 Fair CLR 26 22 79% 28 76.23 0.0
03 21:35 Calm 16.09 Fair CLR 27 22 74% 29 76.23 0.0
03 21:15 Calm 16.09 Fair CLR 27 22 74% 29 76.2 0.0
03 20:55 Calm 16.09 Fair CLR 27 23 79% 30 76.2 0.0
03 20:35 Calm 16.09 Fair CLR 27 22 74% 29 76.17 0.0
03 20:15 Calm 16.09 Fair CLR 28 22 70% 31 76.17 0.0
03 19:55 Calm 16.09 Fair CLR 28 23 74% 31 76.15 0.0
03 19:35 Calm 16.09 Fair CLR 29 22 66% 32 76.15 0.0
03 19:15 Calm 16.09 Fair CLR 30 22 62% 33 76.15 0.0
03 18:55 Calm 16.09 Fair CLR 31 22 59% 35 76.15 0.0
03 18:35 Calm 16.09 Fair CLR 32 22 55% 36 76.12 0.0
03 18:15 Calm 16.09 Fair CLR 34 21 47% 37 76.12 0.0
03 17:55 Calm 16.09 Fair CLR 35 19 39% 37 76.1 0.0
03 17:35 SW 6 16.09 Fair CLR 35 19 39% 37 76.1 0.0
03 17:15 Vrbl 7 16.09 Fair CLR 35 19 39% 37 76.1 0.0
03 16:55 SW 9 16.09 Fair CLR 36 18 34% 37 76.12 0.0
03 16:35 Vrbl 6 16.09 Fair CLR 36 19 37% 38 76.12 0.0
03 16:15 Vrbl 9 16.09 Fair CLR 36 20 39% 39 76.12 0.0
03 15:55 Calm 16.09 Fair CLR 36 20 39% 39 76.15 0.0
03 15:35 W 11 16.09 Fair CLR 36 20 39% 39 76.17 0.0
03 15:15 Vrbl 9 16.09 Fair CLR 36 20 39% 39 76.17 0.0
03 14:55 W 7 16.09 Fair CLR 36 20 39% 39 76.2 0.0
03 14:35 W 9 16.09 A Few Clouds FEW060 36 20 39% 39 76.23 0.0
03 14:15 Vrbl 9 16.09 A Few Clouds FEW060 36 21 42% 40 76.23 0.0
03 13:55 W 11 16.09 Fair CLR 36 21 42% 40 76.25 0.0
03 13:30 S 11 16.09 Fair CLR 36 21 42% 40 76.25 0.0
03 13:15 Vrbl 9 G 19 16.09 Fair CLR 36 21 42% 40 76.28 0.0
03 12:55 SW 11 16.09 Fair CLR 35 20 41% 38 76.3 0.0
03 12:35 Vrbl 9 16.09 Fair CLR 35 20 41% 38 76.3 0.0
03 12:15 Calm 16.09 Fair CLR 35 19 39% 37 76.33 0.0
03 11:55 SE 9 16.09 Fair CLR 35 20 41% 38 76.33 0.0
03 11:35 Vrbl 9 16.09 Fair CLR 35 20 41% 38 76.35 0.0
03 11:15 Calm 16.09 Fair CLR 34 21 47% 37 76.35 0.0
03 10:50 Calm 16.09 Fair CLR 34 20 44% 36 76.35 0.0
03 10:35 Calm 16.09 Fair CLR 34 20 44% 36 76.35 0.0
03 10:15 Vrbl 6 16.09 Fair CLR 33 20 46% 35 76.38 0.0
03 09:55 W 9 16.09 Fair CLR 33 21 49% 36 76.38 0.0
03 09:35 W 7 16.09 Fair CLR 32 21 52% 35 76.35 0.0
03 09:15 W 7 16.09 Fair CLR 32 21 52% 35 76.35 0.0
03 08:50 Calm 16.09 Fair CLR 31 21 55% 34 76.38 0.0
03 08:35 Calm 16.09 Fair CLR 30 22 62% 33 76.38 0.0
03 08:15 Calm 16.09 Fair CLR 28 23 74% 31 76.38 0.0
03 07:55 Calm 16.09 Fair CLR 26 23 84% 28 76.38 0.0
03 07:35 Calm 16.09 Fair CLR 25 22 83% 26 76.38 0.0
03 07:15 Calm 16.09 Fair CLR 24 22 89% 24 76.38 0.0
03 06:55 Calm 16.09 Fair CLR 23 21 89% 76.35 0.0
03 06:35 Calm 16.09 Fair CLR 23 21 89% 76.33 0.0
03 06:15 Calm 16.09 Fair CLR 23 21 89% 76.33 0.0
03 05:55 Calm 16.09 Fair CLR 23 21 89% 76.3 0.0
03 05:35 Calm 16.09 Fair CLR 23 21 89% 76.3 0.0
03 05:15 Calm 16.09 Fair CLR 23 21 89% 76.3 0.0
03 04:55 Calm 16.09 Fair CLR 23 21 89% 76.28 0.0
03 04:35 Calm 16.09 Fair CLR 23 21 89% 76.3 0.0
03 04:15 Calm 16.09 Fair CLR 23 21 89% 76.28 0.0
03 03:55 Calm 16.09 Fair CLR 23 21 89% 76.28 0.0
03 03:35 Calm 16.09 Fair CLR 24 21 83% 24 76.28 0.0
03 03:15 Calm 16.09 Fair CLR 24 21 83% 24 76.28 0.0
03 02:50 Calm 16.09 Fair CLR 24 21 83% 24 76.28 0.0
03 02:35 Calm 16.09 Fair CLR 24 21 83% 24 76.28 0.0
03 02:15 Calm 16.09 Fair CLR 24 21 83% 24 76.28 0.0
03 01:55 Calm 16.09 Fair CLR 24 21 83% 24 76.28 0.0
03 01:35 Calm 16.09 Fair CLR 24 21 83% 24 76.28 0.0
03 01:15 Calm 16.09 Fair CLR 24 21 83% 24 76.28 0.0
03 00:55 Calm 16.09 Fair CLR 24 21 83% 24 76.28 0.0
03 00:35 Calm 16.09 Fair CLR 24 22 89% 24 76.28 0.0
03 00:15 Calm 16.09 Fair CLR 25 21 79% 26 76.28 0.0
02 23:55 Calm 16.09 Fair CLR 25 21 79% 26 76.28 0.0
02 23:35 Calm 16.09 Fair CLR 25 22 83% 26 76.28 0.0
02 23:15 Calm 16.09 Fair CLR 25 22 83% 26 76.28 0.0
02 22:50 Calm 16.09 Fair CLR 25 22 83% 26 76.28 0.0
02 22:35 Calm 16.09 Fair CLR 25 22 83% 26 76.3 0.0
02 22:15 Calm 16.09 Fair CLR 26 22 79% 28 76.3 0.0
02 21:55 Calm 16.09 Fair CLR 26 21 74% 27 76.3 0.0
02 21:35 Calm 16.09 Fair CLR 26 22 79% 28 76.3 0.0
02 21:15 Calm 16.09 Fair CLR 26 22 79% 28 76.3 0.0
02 20:55 Calm 16.09 Fair CLR 26 23 84% 28 76.28 0.0
02 20:35 Calm 16.09 Fair CLR 27 22 74% 29 76.28 0.0
02 20:15 Calm 16.09 Fair CLR 27 22 74% 29 76.25 0.0
02 19:55 Calm 16.09 Fair CLR 28 22 70% 31 76.25 0.0
02 19:35 Calm 16.09 Fair CLR 28 22 70% 31 76.25 0.0
02 19:15 Calm 16.09 Fair CLR 29 22 66% 32 76.25 0.0
02 18:55 Calm 16.09 Fair CLR 31 21 55% 34 76.28 0.0
02 18:35 Calm 16.09 Fair CLR 31 21 55% 34 76.28 0.0
02 18:15 Calm 16.09 Fair CLR 34 20 44% 36 76.28 0.0
02 17:55 Calm 16.09 Fair CLR 34 19 41% 36 76.28 0.0
02 17:35 Calm 16.09 Fair CLR 34 19 41% 36 76.28 0.0
02 17:15 SW 7 16.09 Fair CLR 34 19 41% 36 76.28 0.0
02 16:55 W 9 16.09 Fair CLR 35 19 39% 37 76.28 0.0
02 16:35 W 7 16.09 Fair CLR 35 19 39% 37 76.28 0.0
02 16:15 Vrbl 7 16.09 Fair CLR 35 19 39% 37 76.3 0.0
02 15:55 Calm 16.09 Fair CLR 35 19 39% 37 76.3 0.0
02 15:35 Calm 16.09 Fair CLR 35 20 41% 38 76.3 0.0
02 15:15 Calm 16.09 Fair CLR 35 20 41% 38 76.33 0.0
02 14:55 SW 13 16.09 Fair CLR 35 20 41% 38 76.35 0.0
02 14:35 W 11 16.09 Fair CLR 35 19 39% 37 76.38 0.0
02 14:15 Vrbl 6 16.09 Fair CLR 35 20 41% 38 76.4 0.0
02 13:55 W 13 16.09 Fair CLR 35 20 41% 38 76.4 0.0
02 13:35 Calm 16.09 NULL NULL 35 20 41% 38 76.43 0.0
02 13:15 Vrbl 7 G 19 16.09 NULL NULL 34 20 44% 36 76.43 0.0
02 12:55 SW 13 16.09 NULL NULL 34 20 44% 36 76.45 0.0
02 12:35 Vrbl 7 16.09 NULL NULL 34 20 44% 36 76.45 0.0
02 12:15 Calm 16.09 NULL NULL 34 20 44% 36 76.48 0.0
02 11:55 W 11 16.09 NULL NULL 34 20 44% 36 76.5 0.0
02 11:35 Vrbl 11 16.09 NULL NULL 34 21 47% 37 76.5 0.0
02 11:15 SW 7 16.09 NULL NULL 33 20 46% 35 76.53 0.0
02 10:55 Calm 16.09 NULL NULL 33 20 46% 35 76.53 0.0
02 10:35 Vrbl 6 16.09 NULL NULL 33 21 49% 36 76.53 0.0
02 10:15 SW 9 16.09 NULL NULL 33 21 49% 36 76.53 0.0
02 09:55 S 11 16.09 NULL NULL 32 21 52% 35 76.53 0.0
02 09:35 Vrbl 6 16.09 NULL NULL 31 21 55% 34 76.53 0.0
02 09:15 SW 6 16.09 NULL NULL 30 21 59% 33 76.53 0.0
02 08:55 W 6 16.09 NULL NULL 30 21 59% 33 76.53 0.0
02 08:35 Calm 16.09 NULL NULL 29 21 62% 31 76.53 0.0
02 08:15 Calm 16.09 NULL NULL 28 22 70% 31 76.5 0.0
02 07:55 Calm 16.09 NULL NULL 25 22 83% 26 76.5 0.0
02 07:35 Calm 16.09 NULL NULL 24 22 89% 24 76.5 0.0
02 07:15 Calm 16.09 NULL NULL 23 21 89% 76.5 0.0
02 06:55 Calm 16.09 NULL NULL 22 20 88% 76.48 0.0
02 06:35 Calm 16.09 NULL NULL 22 20 88% 76.45 0.0
02 06:15 Calm 16.09 NULL NULL 22 21 94% 76.45 0.0
02 05:55 Calm 16.09 NULL NULL 22 21 94% 76.43 0.0
02 05:35 Calm 16.09 NULL NULL 22 21 94% 76.43 0.0
02 05:15 Calm 16.09 NULL NULL 23 20 83% 76.4 0.0
02 04:55 Calm 16.09 NULL NULL 24 20 78% 24 76.4 0.0
02 04:35 Calm 16.09 NULL NULL 24 20 78% 24 76.38 0.0
02 04:15 Calm 16.09 NULL NULL 24 20 78% 24 76.38 0.0
02 03:55 Calm 16.09 NULL NULL 24 21 83% 24 76.38 0.0
02 03:35 Calm 16.09 NULL NULL 23 21 89% 76.35 0.0
02 03:15 Calm 16.09 NULL NULL 24 21 83% 24 76.35 0.0
02 02:55 Calm 16.09 NULL NULL 23 21 89% 76.35 0.0
02 02:35 Calm 16.09 NULL NULL 24 21 83% 24 76.33 0.0
02 02:15 Calm 16.09 NULL NULL 24 21 83% 24 76.35 0.0
02 01:55 Calm 16.09 NULL NULL 24 21 83% 24 76.35 0.0
02 01:35 Calm 16.09 NULL NULL 24 21 83% 24 76.35 0.0
02 01:15 Calm 16.09 NULL NULL 24 21 83% 24 76.35 0.0
02 00:55 Calm 16.09 NULL NULL 24 21 83% 24 76.35 0.0
02 00:35 Calm 16.09 NULL NULL 24 22 89% 24 76.35 0.0
02 00:15 Calm 16.09 NULL NULL 24 21 83% 24 76.35 0.0
01 23:35 Calm 16.09 NULL NULL 24 22 89% 24 76.35 0.0
01 23:15 Calm 16.09 NULL NULL 24 22 89% 24 76.35 0.0
01 22:55 Calm 16.09 NULL NULL 24 22 89% 24 76.35 0.0
01 22:35 Calm 16.09 NULL NULL 24 22 89% 24 76.35 0.0
01 22:15 Calm 16.09 NULL NULL 24 22 89% 24 76.38 0.0
01 21:55 Calm 16.09 NULL NULL 25 22 83% 26 76.38 0.0
01 21:35 Calm 16.09 NULL NULL 25 22 83% 26 76.38 0.0
01 21:15 Calm 16.09 NULL NULL 25 22 83% 26 76.38 0.0
01 20:55 Calm 16.09 NULL NULL 25 22 83% 26 76.38 0.0
01 20:35 Calm 16.09 NULL NULL 26 23 84% 28 76.35 0.0
01 20:15 Calm 16.09 NULL NULL 26 23 84% 28 76.35 0.0
01 19:55 Calm 16.09 NULL NULL 27 22 74% 29 76.33 0.0
01 19:35 Calm 16.09 NULL NULL 28 22 70% 31 76.33 0.0
01 19:15 Calm 16.09 NULL NULL 29 22 66% 32 76.33 0.0
01 18:55 Calm 16.09 NULL NULL 30 21 59% 33 76.33 0.0
01 18:35 Calm 16.09 NULL NULL 31 21 55% 34 76.33 0.0
01 18:15 Calm 16.09 NULL NULL 33 20 46% 35 76.35 0.0
01 17:55 SW 6 16.09 NULL NULL 34 19 41% 36 76.35 0.0
01 17:35 SW 7 16.09 NULL NULL 34 18 39% 35 76.35 0.0
01 17:15 Vrbl 6 16.09 NULL NULL 34 20 44% 36 76.35 0.0
01 16:55 S 7 16.09 NULL NULL 34 20 44% 36 76.33 0.0
01 16:35 S 9 16.09 NULL NULL 35 19 39% 37 76.35 0.0
01 16:15 Calm 16.09 NULL NULL 34 19 41% 36 76.35 0.0
01 15:55 Calm 16.09 NULL NULL 34 20 44% 36 76.35 0.0
01 15:35 Calm 16.09 NULL NULL 34 20 44% 36 76.38 0.0
01 15:10 Calm 16.09 NULL NULL 35 20 41% 38 76.38 0.0
01 14:50 Vrbl 7 16.09 NULL NULL 34 20 44% 36 76.38 0.0
01 14:30 SE 7 16.09 NULL NULL 34 21 47% 37 76.4 0.0
01 14:15 Vrbl 7 16.09 NULL NULL 35 21 44% 38 76.43 0.0
01 13:55 Vrbl 11 16.09 NULL NULL 35 21 44% 38 76.43 0.0
01 13:35 Vrbl 6 16.09 NULL NULL 34 21 47% 37 76.45 0.0
01 13:15 Vrbl 9 16.09 NULL NULL 33 21 49% 36 76.45 0.0
01 12:55 Vrbl 7 16.09 NULL NULL 34 21 47% 37 76.48 0.0
01 12:35 Calm 16.09 NULL NULL 33 20 46% 35 76.5 0.0
01 12:15 W 7 16.09 NULL NULL 33 21 49% 36 76.53 0.0
01 11:55 SW 13 16.09 NULL NULL 33 21 49% 36 76.53 0.0
01 11:35 Vrbl 11 16.09 NULL NULL 33 21 49% 36 76.56 0.0
01 11:15 W 7 G 20 16.09 NULL NULL 32 21 52% 35 76.56 0.0
01 10:55 W 9 16.09 NULL NULL 32 22 55% 36 76.56 0.0
01 10:35 W 11 16.09 NULL NULL 32 22 55% 36 76.56 0.0
01 10:15 Vrbl 6 16.09 NULL NULL 31 22 59% 35 76.56 0.0
01 09:55 W 9 16.09 NULL NULL 31 22 59% 35 76.56 0.0
01 09:35 SW 15 16.09 NULL NULL 30 22 62% 33 76.56 0.0
01 09:15 SW 11 16.09 NULL NULL 30 22 62% 33 76.56 0.0
01 08:55 W 9 16.09 NULL NULL 29 22 66% 32 76.56 0.0
01 08:35 SW 7 16.09 NULL NULL 28 22 70% 31 76.56 0.0
01 08:15 W 9 16.09 NULL NULL 28 22 70% 31 76.56 0.0
01 07:55 SW 9 16.09 NULL NULL 27 21 70% 29 76.56 0.0
Date Time (cdt) Wind (kph) Vis. (km) Weather Sky Cond. Air Dwpt Max. Min. Relative Humidity Wind Chill (°C) Heat Index (°C) altimeter (cm) sea level (mb) 1 hr 3 hr 6 hr
6 hour
Temperature (ºC) Pressure Precipitation (cm)